Time;durP1;ratioP1;P1;durP2;ratioP2;P2;SDS_P1;SDS_P2;PMS_P1;PMS_P2;Temp;Humidity;BMP_temperature;BMP_pressure;BME280_temperature;BME280_humidity;BME280_pressure;Samples;Min_cycle;Max_cycle;Signal;HPM_P1;HPM_P2
2022/05/26 00:01:06;;;;;;;;;;;;;;;14.56;100.00;98975.50;5117217;27;19924;-90
2022/05/26 00:03:47;;;;;;;;;;;;;;;14.61;100.00;98972.13;5117164;27;20446;-90
2022/05/26 00:06:31;;;;;;;;;;;;;;;14.79;100.00;98972.31;5118410;27;19945;-89
2022/05/26 00:08:59;;;;;;;;;;;;;;;14.81;100.00;98974.66;5152619;27;20014;-89
2022/05/26 00:11:33;;;;;;;;;;;;;;;14.66;100.00;98979.97;5117615;27;19924;-89
2022/05/26 00:14:07;;;;;;;;;;;;;;;14.74;100.00;98975.69;5099861;27;19973;-87
2022/05/26 00:16:38;;;;;;;;;;;;;;;14.84;100.00;98985.81;5134167;27;19927;-87
2022/05/26 00:19:05;;;;;;;;;;;;;;;14.85;100.00;98969.69;5116517;27;19935;-87
2022/05/26 00:21:32;;;;;;;;;;;;;;;14.61;100.00;98983.38;5116789;27;19923;-87
2022/05/26 00:24:00;;;;;;;;;;;;;;;14.48;100.00;98994.63;5117699;27;19924;-91
2022/05/26 00:26:27;;;;;;;;;;;;;;;14.65;100.00;98989.66;5099775;27;20282;-88
2022/05/26 00:28:54;;;;;;;;;;;;;;;14.66;100.00;98982.78;5133391;27;20370;-87
2022/05/26 00:31:22;;;;;;;;;;;;;;;14.55;100.00;98979.56;5134232;27;19923;-87
2022/05/26 00:33:49;;;;;;;;;;;;;;;14.50;100.00;98985.75;5133319;27;19923;-87
2022/05/26 00:36:17;;;;;;;;;;;;;;;14.62;100.00;98986.94;5116356;27;20448;-86
2022/05/26 00:38:44;;;;;;;;;;;;;;;14.66;100.00;98990.44;5133328;27;19923;-87
2022/05/26 00:41:12;;;;;;;;;;;;;;;14.60;100.00;98995.84;5108492;27;19931;-86
2022/05/26 00:43:44;;;;;;;;;;;;;;;14.69;100.00;98995.16;5119760;27;19924;-86
2022/05/26 00:46:33;;;;;;;;;;;;;;;14.60;100.00;98981.78;5102806;27;19931;-88
2022/05/26 00:49:01;;;;;;;;;;;;;;;14.43;100.00;98995.19;5119274;27;19924;-87
2022/05/26 00:51:31;;;;;;;;;;;;;;;14.42;100.00;99001.25;5119349;27;19924;-87
2022/05/26 00:54:02;;;;;;;;;;;;;;;14.07;100.00;98996.75;5119683;27;19924;-87
2022/05/26 00:56:38;;;;;;;;;;;;;;;14.18;100.00;98994.38;5119972;27;19924;-87
2022/05/26 00:59:09;;;;;;;;;;;;;;;14.32;100.00;98982.72;5102402;27;19924;-88
2022/05/26 01:01:38;;;;;;;;;;;;;;;14.17;100.00;98990.00;5085940;27;19924;-88
2022/05/26 01:04:08;;;;;;;;;;;;;;;14.38;100.00;98986.53;5102095;27;19927;-86
2022/05/26 01:06:46;;;;;;;;;;;;;;;14.48;100.00;98996.63;5085655;27;19931;-88
2022/05/26 01:09:14;;;;;;;;;;;;;;;14.16;100.00;98992.00;5102068;27;19930;-88
2022/05/26 01:11:42;;;;;;;;;;;;;;;14.41;100.00;98994.88;5118973;27;19969;-87
2022/05/26 01:14:20;;;;;;;;;;;;;;;14.20;100.00;98992.72;5085313;27;20367;-88
2022/05/26 01:17:02;;;;;;;;;;;;;;;13.87;100.00;98996.16;5085162;27;20012;-88
2022/05/26 01:19:35;;;;;;;;;;;;;;;13.98;100.00;98991.78;5119047;27;19923;-88
2022/05/26 01:22:08;;;;;;;;;;;;;;;13.88;100.00;98998.53;5068438;27;20019;-88
2022/05/26 01:24:54;;;;;;;;;;;;;;;13.85;100.00;98995.81;5101921;27;19931;-88
2022/05/26 01:27:41;;;;;;;;;;;;;;;14.13;100.00;99003.38;5118861;27;19923;-90
2022/05/26 01:30:28;;;;;;;;;;;;;;;14.03;100.00;99002.47;5084683;27;20025;-88
2022/05/26 01:33:07;;;;;;;;;;;;;;;14.06;100.00;99007.19;5119445;27;19924;-88
2022/05/26 01:35:49;;;;;;;;;;;;;;;14.03;100.00;99004.47;5101769;27;19924;-88
2022/05/26 01:38:30;;;;;;;;;;;;;;;13.89;100.00;99000.09;5101868;27;19931;-88
2022/05/26 01:40:57;;;;;;;;;;;;;;;14.00;100.00;98996.94;5119328;27;20018;-90
2022/05/26 01:43:39;;;;;;;;;;;;;;;13.93;100.00;99005.59;5084892;27;19923;-89
2022/05/26 01:46:07;;;;;;;;;;;;;;;13.91;100.00;99003.25;5101845;27;20069;-88
2022/05/26 01:48:43;;;;;;;;;;;;;;;14.12;100.00;99002.59;5101176;27;19992;-89
2022/05/26 01:51:17;;;;;;;;;;;;;;;13.58;100.00;99007.44;5084796;27;20044;-89
2022/05/26 01:53:47;;;;;;;;;;;;;;;13.44;100.00;99009.84;5100704;27;19958;-88
2022/05/26 01:56:17;;;;;;;;;;;;;;;13.44;100.00;99018.28;5101668;27;19963;-89
2022/05/26 01:59:08;;;;;;;;;;;;;;;13.32;100.00;99027.44;5118432;27;19923;-88
2022/05/26 02:01:43;;;;;;;;;;;;;;;13.56;100.00;99037.16;5091267;27;19931;-89
2022/05/26 02:04:14;;;;;;;;;;;;;;;13.50;100.00;99034.13;5101168;27;20022;-89
2022/05/26 02:06:45;;;;;;;;;;;;;;;13.52;100.00;99036.50;5101184;27;20026;-89
2022/05/26 02:09:16;;;;;;;;;;;;;;;13.42;100.00;99046.78;5101314;27;19966;-89
2022/05/26 02:11:47;;;;;;;;;;;;;;;13.81;100.00;99042.88;5100920;27;20440;-89
2022/05/26 02:14:19;;;;;;;;;;;;;;;13.77;100.00;99048.59;5118107;27;20006;-88
2022/05/26 02:16:49;;;;;;;;;;;;;;;13.48;100.00;99039.38;5083999;27;19924;-88
2022/05/26 02:19:28;;;;;;;;;;;;;;;13.50;100.00;99050.97;5084879;27;19923;-89
2022/05/26 02:22:14;;;;;;;;;;;;;;;13.48;100.00;99059.03;5100664;27;19931;-89
2022/05/26 02:24:50;;;;;;;;;;;;;;;13.58;100.00;99057.19;5101217;27;20409;-90
2022/05/26 02:27:17;;;;;;;;;;;;;;;13.86;100.00;99050.72;5083678;27;19923;-88
2022/05/26 02:29:59;;;;;;;;;;;;;;;13.54;100.00;99053.69;5117394;27;19924;-88
2022/05/26 02:32:52;;;;;;;;;;;;;;;13.47;100.00;99039.84;5083737;27;19962;-89
2022/05/26 02:35:24;;;;;;;;;;;;;;;13.69;100.00;99035.22;5097970;27;19923;-88
2022/05/26 02:37:59;;;;;;;;;;;;;;;13.50;100.00;99038.94;5117494;27;20378;-89
2022/05/26 02:40:26;;;;;;;;;;;;;;;13.52;100.00;99039.31;5100570;27;19935;-89
2022/05/26 02:43:02;;;;;;;;;;;;;;;13.62;100.00;99052.25;5083826;27;19924;-89
2022/05/26 02:45:35;;;;;;;;;;;;;;;13.63;100.00;99042.59;5117424;27;19961;-88
2022/05/26 02:48:06;;;;;;;;;;;;;;;13.59;100.00;99050.31;5100635;27;19923;-89
2022/05/26 02:50:39;;;;;;;;;;;;;;;13.45;100.00;99047.94;5117670;27;19923;-90
2022/05/26 02:53:06;;;;;;;;;;;;;;;13.51;100.00;99049.72;5100261;27;19923;-88
2022/05/26 02:55:40;;;;;;;;;;;;;;;13.26;100.00;99046.03;5100405;27;20286;-89
2022/05/26 02:58:22;;;;;;;;;;;;;;;13.13;100.00;99060.00;5116988;27;20023;-88
2022/05/26 03:01:04;;;;;;;;;;;;;;;13.16;100.00;99058.34;5117127;27;19931;-89
2022/05/26 03:03:34;;;;;;;;;;;;;;;12.97;100.00;99050.78;5117000;27;19924;-89
2022/05/26 03:06:02;;;;;;;;;;;;;;;13.16;100.00;99041.50;5100094;27;19930;-87
2022/05/26 03:08:33;;;;;;;;;;;;;;;13.20;100.00;99050.59;5100250;27;19930;-89
2022/05/26 03:11:04;;;;;;;;;;;;;;;13.37;100.00;99030.50;5117097;27;19931;-87
2022/05/26 03:13:32;;;;;;;;;;;;;;;13.27;100.00;99036.41;5100748;27;19958;-88
2022/05/26 03:15:59;;;;;;;;;;;;;;;13.33;100.00;99035.41;5099958;27;19924;-88
2022/05/26 03:18:26;;;;;;;;;;;;;;;13.39;100.00;99044.09;5100191;28;20002;-88
2022/05/26 03:20:53;;;;;;;;;;;;;;;13.25;100.00;99038.84;5099696;27;19931;-88
2022/05/26 03:23:20;;;;;;;;;;;;;;;13.22;100.00;99042.53;5066335;27;19923;-88
2022/05/26 03:25:47;;;;;;;;;;;;;;;13.18;100.00;99051.06;5100132;28;19927;-88
2022/05/26 03:28:14;;;;;;;;;;;;;;;13.16;100.00;99061.16;5116669;28;19924;-89
2022/05/26 03:30:41;;;;;;;;;;;;;;;13.12;100.00;99052.00;5116458;28;19986;-89
2022/05/26 03:33:08;;;;;;;;;;;;;;;13.32;100.00;99050.69;5083185;28;20386;-87
2022/05/26 03:41:08;;;;;;;;;;;;;;;13.16;100.00;99052.72;5099963;28;20293;-88
2022/05/26 03:43:37;;;;;;;;;;;;;;;13.27;100.00;99042.03;5116444;28;19923;-88
2022/05/26 03:46:05;;;;;;;;;;;;;;;12.94;100.00;99040.44;5116662;28;19924;-88
2022/05/26 03:48:32;;;;;;;;;;;;;;;12.85;100.00;99048.69;5083361;28;20278;-89
2022/05/26 03:50:59;;;;;;;;;;;;;;;12.73;100.00;99042.56;5099470;28;19923;-88
2022/05/26 03:53:26;;;;;;;;;;;;;;;12.87;100.00;99047.03;5082811;28;20382;-88
2022/05/26 03:55:54;;;;;;;;;;;;;;;12.97;100.00;99050.78;5082722;28;20358;-89
2022/05/26 03:58:21;;;;;;;;;;;;;;;12.86;100.00;99050.28;5082888;28;20014;-89
2022/05/26 04:00:49;;;;;;;;;;;;;;;12.91;100.00;99047.72;5082762;28;20305;-89
2022/05/26 04:03:16;;;;;;;;;;;;;;;13.05;100.00;99041.00;5099900;28;19928;-88
2022/05/26 04:05:44;;;;;;;;;;;;;;;12.81;100.00;99048.00;5099900;28;19924;-88
2022/05/26 04:08:12;;;;;;;;;;;;;;;12.73;100.00;99044.59;5099855;28;20010;-88
2022/05/26 04:10:40;;;;;;;;;;;;;;;12.88;100.00;99047.81;5099994;28;20016;-88
2022/05/26 04:13:07;;;;;;;;;;;;;;;12.92;100.00;99048.53;5065804;28;19934;-89
2022/05/26 04:15:35;;;;;;;;;;;;;;;12.79;100.00;99045.63;5099900;27;20445;-90
2022/05/26 04:18:02;;;;;;;;;;;;;;;12.74;100.00;99048.94;5103536;27;19923;-89
2022/05/26 04:20:29;;;;;;;;;;;;;;;12.83;100.00;99049.13;5103759;27;19950;-89
2022/05/26 04:22:56;;;;;;;;;;;;;;;12.83;100.00;99051.94;5103368;27;20389;-88
2022/05/26 04:25:25;;;;;;;;;;;;;;;12.61;100.00;99062.09;5086882;27;19923;-89
2022/05/26 04:27:53;;;;;;;;;;;;;;;12.93;100.00;99055.69;5103287;27;19930;-88
2022/05/26 04:30:21;;;;;;;;;;;;;;;13.00;100.00;99047.13;5102829;27;20049;-89
2022/05/26 04:32:48;;;;;;;;;;;;;;;12.81;100.00;99045.19;5086068;27;19923;-88
2022/05/26 04:35:15;;;;;;;;;;;;;;;12.93;100.00;99044.47;5102999;27;20021;-90
2022/05/26 04:37:43;;;;;;;;;;;;;;;13.10;100.00;99040.47;5119982;27;20026;-89
2022/05/26 04:40:10;;;;;;;;;;;;;;;13.09;100.00;99044.47;5085892;27;19927;-90
2022/05/26 04:42:38;;;;;;;;;;;;;;;13.15;100.00;99056.75;5120244;27;19932;-89
2022/05/26 04:45:07;;;;;;;;;;;;;;;13.44;100.00;99051.94;5085867;27;19951;-88
2022/05/26 04:47:35;;;;;;;;;;;;;;;13.64;100.00;99055.41;5102883;27;19923;-89
2022/05/26 04:50:03;;;;;;;;;;;;;;;13.82;100.00;99050.84;5085626;27;19923;-88
2022/05/26 04:52:30;;;;;;;;;;;;;;;13.46;100.00;99055.91;5102407;27;19931;-87
2022/05/26 04:54:58;;;;;;;;;;;;;;;13.34;100.00;99069.88;5137872;27;20282;-88
2022/05/26 04:57:25;;;;;;;;;;;;;;;13.30;100.00;99066.38;5136681;27;19930;-89
2022/05/26 04:59:52;;;;;;;;;;;;;;;13.28;100.00;99061.22;5102445;27;19924;-89
2022/05/26 05:02:22;;;;;;;;;;;;;;;13.31;100.00;99070.75;5102376;27;20290;-88
2022/05/26 05:04:49;;;;;;;;;;;;;;;13.14;100.00;99072.00;5102255;27;19923;-88
2022/05/26 05:07:17;;;;;;;;;;;;;;;13.44;100.00;99058.34;5120341;27;19923;-93
2022/05/26 05:09:45;;;;;;;;;;;;;;;13.22;100.00;99073.41;5085261;27;20405;-83
2022/05/26 05:12:15;;;;;;;;;;;;;;;13.49;100.00;99082.28;5101900;27;19931;-84
2022/05/26 05:14:46;;;;;;;;;;;;;;;13.42;100.00;99076.88;5119492;27;19935;-84
2022/05/26 05:17:14;;;;;;;;;;;;;;;13.31;100.00;99082.78;5069099;27;19924;-93
2022/05/26 05:19:42;;;;;;;;;;;;;;;13.36;100.00;99073.03;5069614;27;19927;-90
2022/05/26 05:22:16;;;;;;;;;;;;;;;13.47;100.00;99079.13;5069367;27;20306;-91
2022/05/26 05:24:56;;;;;;;;;;;;;;;13.27;100.00;99076.47;5069870;27;19976;-90
2022/05/26 05:27:30;;;;;;;;;;;;;;;13.69;100.00;99091.38;5086105;27;19930;-90
2022/05/26 05:29:59;;;;;;;;;;;;;;;13.88;100.00;99076.38;5085196;27;19927;-90
2022/05/26 05:32:31;;;;;;;;;;;;;;;13.86;100.00;99090.06;5102726;27;19927;-91
2022/05/26 05:35:02;;;;;;;;;;;;;;;13.85;100.00;99080.06;5085620;27;19927;-90
2022/05/26 05:37:33;;;;;;;;;;;;;;;13.59;100.00;99076.38;5102508;27;19923;-89
2022/05/26 05:40:01;;;;;;;;;;;;;;;13.68;100.00;99084.16;5102206;27;19923;-89
2022/05/26 05:42:29;;;;;;;;;;;;;;;14.00;100.00;99076.41;5068547;27;19972;-90
2022/05/26 05:44:57;;;;;;;;;;;;;;;14.00;100.00;99078.41;5068095;27;19927;-90
2022/05/26 05:47:24;;;;;;;;;;;;;;;14.10;100.00;99078.09;5101569;27;19924;-89
2022/05/26 05:49:51;;;;;;;;;;;;;;;14.32;100.00;99079.06;5101459;27;19976;-89
2022/05/26 05:52:20;;;;;;;;;;;;;;;14.37;100.00;99074.91;5085112;27;19927;-83
2022/05/26 05:54:47;;;;;;;;;;;;;;;14.36;100.00;99067.69;5101069;27;19930;-84
2022/05/26 05:57:14;;;;;;;;;;;;;;;14.34;100.00;99076.59;5101530;27;19923;-82
2022/05/26 05:59:41;;;;;;;;;;;;;;;14.48;100.00;99075.34;5082974;28;20016;-80
2022/05/26 06:02:08;;;;;;;;;;;;;;;14.55;100.00;99088.41;5112814;28;19939;-80
2022/05/26 06:04:51;;;;;;;;;;;;;;;14.16;100.00;99081.16;5080838;28;20045;-84
2022/05/26 06:07:21;;;;;;;;;;;;;;;14.40;100.00;99097.28;5094372;28;20507;-83
2022/05/26 06:09:48;;;;;;;;;;;;;;;14.34;100.00;99082.22;5112832;28;19935;-83
2022/05/26 06:12:16;;;;;;;;;;;;;;;14.49;100.00;99085.38;5113237;28;19923;-83
2022/05/26 06:14:43;;;;;;;;;;;;;;;14.60;100.00;99099.88;5112782;28;19962;-83
2022/05/26 06:17:11;;;;;;;;;;;;;;;14.53;100.00;99100.09;5094489;28;19923;-83
2022/05/26 06:19:39;;;;;;;;;;;;;;;14.58;100.00;99093.94;5068229;28;20448;-84
2022/05/26 06:22:07;;;;;;;;;;;;;;;14.77;100.00;99103.38;5099291;27;19928;-82
2022/05/26 06:24:36;;;;;;;;;;;;;;;14.69;100.00;99097.19;5126161;27;19947;-83
2022/05/26 06:29:49;;;;;;;;;;;;;;;14.40;100.00;99107.75;5112840;28;19946;-79
2022/05/26 06:29:50;;;;;;;;;;;;;;;14.21;100.00;99103.06;5112227;28;19923;-80
2022/05/26 06:37:50;;;;;;;;;;;;;;;14.38;100.00;99107.41;5132802;27;19923;-80
2022/05/26 06:40:17;;;;;;;;;;;;;;;14.59;100.00;99105.94;5133372;27;19923;-80
2022/05/26 06:42:45;;;;;;;;;;;;;;;14.66;100.00;99112.13;5098787;27;20294;-81
2022/05/26 06:45:16;;;;;;;;;;;;;;;14.84;100.00;99109.56;5131837;27;20362;-80
2022/05/26 06:47:43;;;;;;;;;;;;;;;14.79;100.00;99112.13;5097311;28;20279;-81
2022/05/26 06:50:10;;;;;;;;;;;;;;;14.90;100.00;99104.16;5098563;27;20362;-81
2022/05/26 06:52:40;;;;;;;;;;;;;;;14.94;100.00;99104.81;5108355;27;19924;-81
2022/05/26 06:55:08;;;;;;;;;;;;;;;14.74;100.00;99105.06;5097935;27;20276;-81
2022/05/26 06:57:36;;;;;;;;;;;;;;;14.37;100.00;99106.59;5106549;27;20255;-81
2022/05/26 07:00:04;;;;;;;;;;;;;;;14.51;100.00;99107.44;5100271;27;20474;-81
2022/05/26 07:02:32;;;;;;;;;;;;;;;14.59;100.00;99103.94;5093392;28;19924;-81
2022/05/26 07:05:00;;;;;;;;;;;;;;;14.60;100.00;99099.09;5099133;27;20439;-81
2022/05/26 07:07:27;;;;;;;;;;;;;;;14.66;100.00;99109.31;5096782;28;20356;-81
2022/05/26 07:09:55;;;;;;;;;;;;;;;14.34;100.00;99098.31;5086838;28;19959;-81
2022/05/26 07:12:23;;;;;;;;;;;;;;;14.64;100.00;99114.63;5096025;28;19923;-81
2022/05/26 07:14:51;;;;;;;;;;;;;;;14.62;100.00;99107.84;5114851;28;20309;-80
2022/05/26 07:17:18;;;;;;;;;;;;;;;14.37;100.00;99115.03;5114943;28;19923;-81
2022/05/26 07:19:45;;;;;;;;;;;;;;;14.54;100.00;99115.72;5084761;28;20363;-78
2022/05/26 07:22:14;;;;;;;;;;;;;;;14.81;100.00;99110.47;5096584;28;20275;-79
2022/05/26 07:24:41;;;;;;;;;;;;;;;14.42;100.00;99103.25;5096835;28;20054;-80
2022/05/26 07:27:08;;;;;;;;;;;;;;;14.58;100.00;99107.19;5079530;28;20014;-80
2022/05/26 07:29:35;;;;;;;;;;;;;;;14.75;100.00;99115.09;5114060;28;19931;-79
2022/05/26 07:32:03;;;;;;;;;;;;;;;14.78;100.00;99102.13;5096209;28;20307;-79
2022/05/26 07:34:30;;;;;;;;;;;;;;;14.77;100.00;99112.59;5114236;28;20018;-79
2022/05/26 07:42:31;;;;;;;;;;;;;;;14.67;100.00;99105.28;5114536;28;19924;-79
2022/05/26 07:45:00;;;;;;;;;;;;;;;14.82;100.00;99105.63;5120391;28;20393;-79
2022/05/26 07:47:28;;;;;;;;;;;;;;;14.64;100.00;99105.41;5134743;28;19934;-79
2022/05/26 07:49:55;;;;;;;;;;;;;;;15.04;100.00;99101.66;5116325;28;20355;-79
2022/05/26 07:52:22;;;;;;;;;;;;;;;15.01;100.00;99111.00;5102893;27;19923;-78
2022/05/26 07:54:50;;;;;;;;;;;;;;;14.85;100.00;99110.34;5120463;27;19931;-79
2022/05/26 07:57:20;;;;;;;;;;;;;;;14.83;100.00;99113.59;5138991;27;19923;-80
2022/05/26 07:59:48;;;;;;;;;;;;;;;14.88;100.00;99103.81;5120449;27;19927;-82
2022/05/26 08:02:16;;;;;;;;;;;;;;;15.03;100.00;99116.16;5103301;27;19924;-81
2022/05/26 08:04:43;;;;;;;;;;;;;;;14.69;100.00;99107.66;5120574;27;19962;-81
2022/05/26 08:07:10;;;;;;;;;;;;;;;14.83;100.00;99116.41;5103386;27;19923;-81
2022/05/26 08:09:38;;;;;;;;;;;;;;;14.94;100.00;99099.19;5103531;27;20523;-81
2022/05/26 08:12:06;;;;;;;;;;;;;;;14.96;100.00;99105.97;5138398;27;19924;-80
2022/05/26 08:14:34;;;;;;;;;;;;;;;15.42;100.00;99110.06;5093990;28;20019;-82
2022/05/26 08:17:01;;;;;;;;;;;;;;;15.14;100.00;99099.72;5131428;27;19923;-85
2022/05/26 08:19:29;;;;;;;;;;;;;;;15.01;100.00;99108.19;5070167;28;20421;-79
2022/05/26 08:21:56;;;;;;;;;;;;;;;15.17;100.00;99110.06;5117487;27;19923;-82
2022/05/26 08:24:24;;;;;;;;;;;;;;;15.16;100.00;99112.09;5114942;28;20377;-83
2022/05/26 08:26:51;;;;;;;;;;;;;;;15.29;100.00;99112.88;5080464;28;19947;-81
2022/05/26 08:29:18;;;;;;;;;;;;;;;15.24;100.00;99105.00;5096802;28;20275;-83
2022/05/26 08:31:45;;;;;;;;;;;;;;;15.31;100.00;99106.78;5119186;27;20501;-80
2022/05/26 08:34:12;;;;;;;;;;;;;;;15.42;100.00;99102.38;5102801;28;20409;-79
2022/05/26 08:36:40;;;;;;;;;;;;;;;15.52;100.00;99101.25;5121367;27;20625;-79
2022/05/26 08:39:07;;;;;;;;;;;;;;;15.64;100.00;99103.22;5096264;28;19924;-79
2022/05/26 08:41:39;;;;;;;;;;;;;;;15.77;100.00;99098.31;5114663;28;19923;-80
2022/05/26 08:44:11;;;;;;;;;;;;;;;15.88;100.00;99100.75;5109541;27;19930;-79
2022/05/26 08:46:44;;;;;;;;;;;;;;;15.84;100.00;99109.31;5124216;27;19928;-79
2022/05/26 08:49:14;;;;;;;;;;;;;;;15.84;100.00;99109.31;5098349;27;19927;-79
2022/05/26 08:51:44;;;;;;;;;;;;;;;15.95;100.00;99121.00;5132494;27;19931;-79
2022/05/26 08:54:27;;;;;;;;;;;;;;;15.97;100.00;99112.06;5096269;28;19924;-78
2022/05/26 08:56:59;;;;;;;;;;;;;;;15.93;100.00;99112.19;5113573;28;19931;-79
2022/05/26 08:59:33;;;;;;;;;;;;;;;15.95;100.00;99126.63;5113957;28;19924;-77
2022/05/26 09:02:01;;;;;;;;;;;;;;;15.91;100.00;99120.34;5129645;27;19962;-79
2022/05/26 09:04:29;;;;;;;;;;;;;;;16.03;100.00;99115.88;5133735;27;20363;-78
2022/05/26 09:15:20;;;;;;;;;;;;;;;15.58;100.00;99126.78;5133954;27;19951;-80
2022/05/26 09:17:47;;;;;;;;;;;;;;;15.72;100.00;99131.94;5133715;27;19931;-82
2022/05/26 09:20:39;;;;;;;;;;;;;;;15.59;100.00;99143.22;5134119;27;19931;-83
2022/05/26 09:23:14;;;;;;;;;;;;;;;15.39;100.00;99136.28;5133941;27;19958;-78
2022/05/26 09:26:08;;;;;;;;;;;;;;;15.39;100.00;99123.00;5115440;27;19928;-78
2022/05/26 09:28:38;;;;;;;;;;;;;;;15.78;100.00;99132.91;5094147;27;19931;-79
2022/05/26 09:31:18;;;;;;;;;;;;;;;15.70;100.00;99125.94;5133563;27;19923;-79
2022/05/26 09:33:58;;;;;;;;;;;;;;;15.77;100.00;99122.88;5115700;27;19968;-79
2022/05/26 09:36:27;;;;;;;;;;;;;;;15.91;100.00;99140.06;5115321;27;19928;-78
2022/05/26 09:38:54;;;;;;;;;;;;;;;15.68;100.00;99140.50;5115853;27;19923;-79
2022/05/26 09:41:21;;;;;;;;;;;;;;;16.03;100.00;99144.84;5115045;27;19923;-79
2022/05/26 09:43:50;;;;;;;;;;;;;;;16.23;100.00;99131.22;5098878;27;20293;-79
2022/05/26 09:46:18;;;;;;;;;;;;;;;16.14;100.00;99139.63;5133656;27;20010;-79
2022/05/26 09:48:50;;;;;;;;;;;;;;;16.08;100.00;99135.78;5133416;27;19972;-78
2022/05/26 09:51:21;;;;;;;;;;;;;;;16.47;100.00;99127.94;5132429;27;20286;-79
2022/05/26 09:53:51;;;;;;;;;;;;;;;16.32;100.00;99132.50;5132898;27;19965;-82
2022/05/26 09:56:37;;;;;;;;;;;;;;;16.22;100.00;99140.16;5133586;27;19949;-80
2022/05/26 09:59:23;;;;;;;;;;;;;;;16.23;100.00;99138.88;5133219;27;19923;-80
2022/05/26 10:01:53;;;;;;;;;;;;;;;16.51;100.00;99120.13;5133474;27;20278;-81
2022/05/26 10:04:38;;;;;;;;;;;;;;;16.82;100.00;99132.19;5115813;27;20010;-81
2022/05/26 10:07:15;;;;;;;;;;;;;;;16.68;100.00;99104.53;5133212;27;19959;-81
2022/05/26 10:09:42;;;;;;;;;;;;;;;16.68;100.00;99121.47;5097960;27;19955;-79
2022/05/26 10:12:12;;;;;;;;;;;;;;;16.90;100.00;99117.34;5114803;27;19923;-80
2022/05/26 10:14:46;;;;;;;;;;;;;;;17.02;100.00;99110.00;5132105;27;19923;-86
2022/05/26 10:17:19;;;;;;;;;;;;;;;16.63;100.00;99116.44;5076719;28;20457;-84
2022/05/26 10:19:46;;;;;;;;;;;;;;;16.43;100.00;99105.50;5094556;28;20397;-80
2022/05/26 10:22:31;;;;;;;;;;;;;;;16.34;100.00;99108.28;5113071;28;19923;-80
2022/05/26 10:25:11;;;;;;;;;;;;;;;16.47;100.00;99116.66;5078929;28;19923;-81
2022/05/26 10:27:50;;;;;;;;;;;;;;;16.37;100.00;99127.09;5112225;28;20295;-79
2022/05/26 10:30:36;;;;;;;;;;;;;;;16.51;100.00;99114.50;5093838;28;19931;-80
2022/05/26 10:33:19;;;;;;;;;;;;;;;16.65;100.00;99125.22;5094016;28;19924;-84
2022/05/26 10:35:58;;;;;;;;;;;;;;;16.38;100.00;99125.81;5112634;28;19928;-86
2022/05/26 10:38:25;;;;;;;;;;;;;;;16.37;100.00;99121.44;5112542;28;19931;-83
2022/05/26 10:41:00;;;;;;;;;;;;;;;16.57;100.00;99121.13;5094078;28;19934;-83
2022/05/26 10:43:40;;;;;;;;;;;;;;;16.97;100.00;99110.59;5094002;28;19924;-82
2022/05/26 10:46:09;;;;;;;;;;;;;;;17.19;100.00;99120.56;5110818;28;19954;-81
2022/05/26 10:48:55;;;;;;;;;;;;;;;17.02;100.00;99107.19;5112075;28;19930;-79
2022/05/26 10:51:27;;;;;;;;;;;;;;;16.68;100.00;99115.81;5110961;28;19923;-81
2022/05/26 10:53:57;;;;;;;;;;;;;;;16.92;100.00;99123.28;5111967;28;19930;-78
2022/05/26 10:56:32;;;;;;;;;;;;;;;16.57;100.00;99099.31;5111641;28;19985;-79
2022/05/26 10:59:10;;;;;;;;;;;;;;;16.47;100.00;99113.84;5111425;28;19923;-78
2022/05/26 11:01:45;;;;;;;;;;;;;;;16.66;100.00;99112.69;5111458;28;19930;-77
2022/05/26 11:04:30;;;;;;;;;;;;;;;16.66;100.00;99121.16;5111359;28;20278;-79
2022/05/26 11:06:59;;;;;;;;;;;;;;;16.68;100.00;99115.81;5093714;28;20566;-79
2022/05/26 11:09:34;;;;;;;;;;;;;;;16.39;100.00;99120.97;5092613;28;19931;-79
2022/05/26 11:12:05;;;;;;;;;;;;;;;16.55;100.00;99112.31;5111224;28;20004;-79
2022/05/26 11:17:38;;;;;;;;;;;;;;;16.82;100.00;99103.97;5111096;28;20402;-79
2022/05/26 11:20:13;;;;;;;;;;;;;;;16.95;100.00;99113.13;5111323;28;20497;-78
2022/05/26 11:22:45;;;;;;;;;;;;;;;17.14;100.00;99092.94;5092815;28;19924;-78
2022/05/26 11:25:19;;;;;;;;;;;;;;;17.05;100.00;99092.13;5111036;28;20302;-78
2022/05/26 11:28:05;;;;;;;;;;;;;;;16.88;100.00;99085.19;5075931;28;20010;-87
2022/05/26 11:36:33;;;;;;;;;;;;;;;17.96;100.00;99102.31;5093195;28;19931;-85
2022/05/26 11:39:01;;;;;;;;;;;;;;;18.01;100.00;99092.41;5111059;28;20028;-80
2022/05/26 11:41:56;;;;;;;;;;;;;;;17.86;100.00;99089.41;5110708;28;19931;-86
2022/05/26 11:44:30;;;;;;;;;;;;;;;18.14;100.00;99079.66;5074620;28;19980;-84
2022/05/26 11:47:18;;;;;;;;;;;;;;;17.77;100.00;99080.94;5094186;28;19924;-86
2022/05/26 11:49:46;;;;;;;;;;;;;;;17.64;100.00;99069.03;5110800;28;19931;-85
2022/05/26 11:52:25;;;;;;;;;;;;;;;17.34;100.00;99090.47;5093116;28;19928;-86
2022/05/26 11:54:52;;;;;;;;;;;;;;;17.25;100.00;99081.22;5091767;28;19931;-86
2022/05/26 11:57:32;;;;;;;;;;;;;;;17.36;100.00;99081.53;5076218;28;19931;-85
2022/05/26 12:00:25;;;;;;;;;;;;;;;17.45;100.00;99096.47;5093319;28;19924;-84
2022/05/26 12:03:17;;;;;;;;;;;;;;;17.45;100.00;99098.50;5071886;28;19977;-91
2022/05/26 12:05:45;;;;;;;;;;;;;;;17.23;100.00;99089.34;5076524;28;19923;-85
2022/05/26 12:08:24;;;;;;;;;;;;;;;17.23;100.00;99092.19;5094751;28;19924;-87
2022/05/26 12:10:54;;;;;;;;;;;;;;;17.25;100.00;99103.78;5110505;28;20022;-85
2022/05/26 12:13:27;;;;;;;;;;;;;;;17.47;100.00;99110.13;5093555;28;20020;-82
2022/05/26 12:16:18;;;;;;;;;;;;;;;17.13;100.00;99110.38;5095565;28;19924;-87
2022/05/26 12:18:48;;;;;;;;;;;;;;;16.98;100.00;99100.91;5078879;28;20546;-89
2022/05/26 12:21:38;;;;;;;;;;;;;;;17.15;100.00;99116.31;5062161;28;19924;-86
2022/05/26 12:24:28;;;;;;;;;;;;;;;16.78;100.00;99114.63;5088134;28;20318;-86
2022/05/26 12:26:56;;;;;;;;;;;;;;;16.94;100.00;99117.19;5073889;28;19924;-86
2022/05/26 12:29:41;;;;;;;;;;;;;;;16.75;100.00;99121.19;5079044;28;19970;-85
2022/05/26 12:32:19;;;;;;;;;;;;;;;16.48;100.00;99113.38;5062155;28;19930;-86
2022/05/26 12:34:49;;;;;;;;;;;;;;;16.46;100.00;99115.88;5095597;28;20390;-87
2022/05/26 12:37:22;;;;;;;;;;;;;;;16.44;100.00;99121.19;5114187;28;20018;-88
2022/05/26 12:39:52;;;;;;;;;;;;;;;16.49;100.00;99120.59;5065815;28;19924;-87
2022/05/26 12:42:19;;;;;;;;;;;;;;;16.60;100.00;99132.22;5099365;28;19981;-86
2022/05/26 12:44:57;;;;;;;;;;;;;;;16.60;100.00;99111.72;5099387;28;19924;-88
2022/05/26 12:47:34;;;;;;;;;;;;;;;16.72;100.00;99127.75;5099326;28;19924;-87
2022/05/26 12:50:07;;;;;;;;;;;;;;;16.59;100.00;99127.84;5116053;28;19941;-85
2022/05/26 12:52:52;;;;;;;;;;;;;;;16.71;100.00;99135.44;5049340;28;20393;-86
2022/05/26 12:55:22;;;;;;;;;;;;;;;16.41;100.00;99141.03;5082193;28;20535;-85
2022/05/26 12:57:53;;;;;;;;;;;;;;;16.33;100.00;99139.75;5082175;28;19923;-84
2022/05/26 13:00:25;;;;;;;;;;;;;;;16.10;100.00;99130.50;5116089;28;20004;-85
2022/05/26 13:02:54;;;;;;;;;;;;;;;16.42;100.00;99148.25;5098725;28;20012;-83
2022/05/26 13:05:21;;;;;;;;;;;;;;;16.42;100.00;99159.53;5125010;27;19930;-83
2022/05/26 13:07:53;;;;;;;;;;;;;;;16.20;100.00;99159.53;5103829;27;19923;-85
2022/05/26 13:10:25;;;;;;;;;;;;;;;16.71;100.00;99154.38;5110731;27;19924;-84
2022/05/26 13:12:52;;;;;;;;;;;;;;;16.40;100.00;99151.53;5083861;27;19931;-85
2022/05/26 13:15:20;;;;;;;;;;;;;;;16.41;100.00;99161.56;5107540;27;19930;-85
2022/05/26 13:17:48;;;;;;;;;;;;;;;16.66;100.00;99157.81;5107360;27;19972;-85
2022/05/26 13:20:44;;;;;;;;;;;;;;;16.56;100.00;99161.81;5109185;27;19930;-83
2022/05/26 13:23:31;;;;;;;;;;;;;;;16.25;100.00;99161.78;5075575;28;19923;-84
2022/05/26 13:25:58;;;;;;;;;;;;;;;16.11;100.00;99157.44;5098200;28;19928;-83
2022/05/26 13:28:28;;;;;;;;;;;;;;;16.06;100.00;99174.94;5065245;28;19931;-85
2022/05/26 13:34:01;;;;;;;;;;;;;;;16.39;100.00;99160.47;5116541;28;19923;-83
2022/05/26 13:36:31;;;;;;;;;;;;;;;16.29;100.00;99168.06;5116043;28;19931;-83